Terminal Aerodrome Forecast
Issued by NWS Bismarck, ND

Home | Current Version | Previous Version | Graphics & Text | Print | Product List | Glossary On
Versions: 1 2 3 4 5 6 7 8 9 10 11 12 13 14
000
FTUS43 KBIS 042339
TAFBIS
TAF
KBIS 042339Z 0500/0524 18008KT P6SM FEW250
     FM051000 19004KT P6SM SKC WS015/20035KT
     FM051500 20006KT P6SM SKC=

USA.gov is the U.S. government's official web portal to all federal, state and local government web resources and services.